Bloomington, IN (47408)

12:44 PM EDT del 25 Ottobre 2014 (GMT -0400)
KINBLOOM23 | Change Station
CLOSE
Current Station
Stazione meteo personale
Location: Bloomington, IN
Altitudine: 800 ft
Stazioni meteo nelle vicinanze

Alt. 800 ft 39.15 °N, 86.51 °W | Updated 43 seconds ago

Parzialmente nuvoloso
Parzialmente nuvoloso
66.0 °F
Sembra 66.0 °F
N
0.0
Vento Variabile Vento da Ovest

Oggi
Massima -- | Minima -- °F
--% Possibilità di precip.
Ieri
Massima -- | Minima -- °F
Precip. -- in
8:05 AM 6:53 PM
Luna crescente, 3% visible
Pressione 29.99 in
Visibilità 10.0 miglia
Nuvole Nubi sparse 1200 ft
Punto di rugiada 60 °F
Umidità 80%
Piovosità 0.00 in
Spessore del manto nevoso Non disponibile.
Raggi UV 3 fuori da 12
Polline 1.70 fuori da 12
Qualità dell'aria Non disponibile.
Flu Activity Sporadic
METAR KBMG 251553Z 22007KT 10SM SCT012 18/14 A3000 RMK AO2 SLP154 T01780139

More Conditions Fewer Conditions

Pressione 29.99 in
Visibilità 10.0 miglia
Nuvole Nubi sparse 1200 ft
Punto di rugiada 60 °F
Umidità 80%
Piovosità 0.00 in
Spessore del manto nevoso Non disponibile.
Raggi UV 3 fuori da 12
Polline 1.70 fuori da 12
Qualità dell'aria Non disponibile.
Flu Activity Sporadic
METAR KBMG 251553Z 22007KT 10SM SCT012 18/14 A3000 RMK AO2 SLP154 T01780139

More Conditions Fewer Conditions

10-Day Weather Forecast

Almanac

Astronomia

Oct. 25, 2014 Alba Tramonto
Ora attuale 08:05 EDT 18:53 EDT
Crepuscolo civile 07:38 EDT 19:20 EDT
Crepuscolo nautico 07:07 EDT 19:51 EDT
Crepuscolo astronomico 06:36 EDT 20:22 EDT
Luna 09:43 EDT 20:16 EDT
Estensione della luce visibile 11h 42m
Lunghezza del giorno
10h 47m
Tomorrow will be 2m 21s shorter.
Luna crescente, 3% of the Moon is Illuminated
Oggi
Luna crescente
Ott 30
Primo quarto
Nov 6
Luna piena
Nov 14
Ultimo quarto
Nov 22
Nuovo

Gli estremi di oggi

State Highs State Lows

Community

WunderPhotos

Upload Photos

1,764,901 foto caricate!

Nearby

Profondità neve

Stazione Profondità Altitudine
Non sono state evidenziate nuove nevicate

Attività sismica

Città  Distanza Mag. Data & Ora
Non sono state riportate attività sismiche nelle vicinanze.
Minimo Magnitudo Mostrato è 2.5.

Temperature delle acque costiere

Località Temperatura
Nessun dato dalle stazioni

Stazioni meteo nelle vicinanze